Time;durP1;ratioP1;P1;durP2;ratioP2;P2;SDS_P1;SDS_P2;PMS_P1;PMS_P2;Temp;Humidity;BMP_temperature;BMP_pressure;BME280_temperature;BME280_humidity;BME280_pressure;Samples;Min_cycle;Max_cycle;Signal;HPM_P1;HPM_P2
2022/12/12 00:00:53;;;;;;;;;;;;;;;20.85;31.72;96391.81;5082542;28;1943;-81
2022/12/12 00:03:18;;;;;;;;;;;;;;;20.75;31.79;96406.00;5097444;28;899;-81
2022/12/12 00:05:44;;;;;;;;;;;;;;;21.10;31.63;96402.69;5098415;28;853;-80
2022/12/12 00:08:09;;;;;;;;;;;;;;;21.40;30.98;96408.47;5097408;28;994;-81
2022/12/12 00:10:35;;;;;;;;;;;;;;;21.36;31.28;96416.41;5098181;28;1174;-81
2022/12/12 00:13:00;;;;;;;;;;;;;;;21.25;31.06;96412.03;5096991;28;1973;-80
2022/12/12 00:15:26;;;;;;;;;;;;;;;21.00;31.47;96420.97;5098179;28;1194;-80
2022/12/12 00:17:52;;;;;;;;;;;;;;;20.95;31.31;96418.78;5097316;28;916;-80
2022/12/12 00:20:17;;;;;;;;;;;;;;;20.86;31.39;96410.34;5097386;28;1009;-80
2022/12/12 00:22:43;;;;;;;;;;;;;;;21.24;31.19;96395.53;5047357;28;937;-81
2022/12/12 00:25:08;;;;;;;;;;;;;;;21.23;31.39;96393.97;5097810;28;1005;-80
2022/12/12 00:27:34;;;;;;;;;;;;;;;21.43;30.98;96396.22;5097618;28;926;-80
2022/12/12 00:29:59;;;;;;;;;;;;;;;21.26;30.97;96405.09;5099310;28;969;-80
2022/12/12 00:32:24;;;;;;;;;;;;;;;21.26;30.69;96427.72;5100003;28;1055;-80
2022/12/12 00:34:50;;;;;;;;;;;;;;;21.11;30.98;96429.69;5098900;28;1983;-80
2022/12/12 00:37:16;;;;;;;;;;;;;;;21.37;31.11;96440.59;5115799;28;918;-81
2022/12/12 00:39:41;;;;;;;;;;;;;;;21.36;30.80;96450.34;5099278;28;880;-81
2022/12/12 00:42:07;;;;;;;;;;;;;;;21.32;30.89;96437.16;5099431;28;892;-81
2022/12/12 00:44:32;;;;;;;;;;;;;;;21.14;31.08;96433.59;5099319;28;965;-81
2022/12/12 00:46:58;;;;;;;;;;;;;;;21.01;31.13;96445.16;5098947;28;931;-80
2022/12/12 00:49:23;;;;;;;;;;;;;;;21.05;30.98;96446.53;5098836;28;900;-81
2022/12/12 00:51:48;;;;;;;;;;;;;;;20.94;31.14;96462.47;5099637;28;1003;-80
2022/12/12 00:54:14;;;;;;;;;;;;;;;21.22;31.26;96478.03;5098629;28;1901;-80
2022/12/12 00:56:39;;;;;;;;;;;;;;;21.22;31.25;96494.22;5099347;28;996;-80
2022/12/12 00:59:05;;;;;;;;;;;;;;;21.04;31.04;96484.56;5095767;28;980;-81
2022/12/12 01:01:31;;;;;;;;;;;;;;;21.08;31.23;96478.72;5086445;28;1492;-80
2022/12/12 01:03:57;;;;;;;;;;;;;;;20.77;31.46;96479.78;5095081;28;1489;-80
2022/12/12 01:06:23;;;;;;;;;;;;;;;20.92;31.07;96477.06;5075944;28;1167;-80
2022/12/12 01:08:49;;;;;;;;;;;;;;;20.88;31.94;96481.31;5058470;28;977;-80
2022/12/12 01:11:14;;;;;;;;;;;;;;;21.19;31.41;96487.50;5076999;28;1547;-79
2022/12/12 01:13:40;;;;;;;;;;;;;;;21.27;31.03;96502.84;5075303;28;1910;-81
2022/12/12 01:16:06;;;;;;;;;;;;;;;21.27;30.96;96485.88;5076807;28;999;-80
2022/12/12 01:18:31;;;;;;;;;;;;;;;20.99;31.13;96492.94;5074913;28;965;-80
2022/12/12 01:20:56;;;;;;;;;;;;;;;21.00;31.07;96508.63;5076995;28;988;-80
2022/12/12 01:23:22;;;;;;;;;;;;;;;20.89;31.25;96514.00;5075143;28;1122;-81
2022/12/12 01:25:47;;;;;;;;;;;;;;;21.17;31.05;96509.03;5076446;28;1038;-80
2022/12/12 01:28:13;;;;;;;;;;;;;;;21.19;31.04;96507.31;5058928;28;1059;-80
2022/12/12 01:30:39;;;;;;;;;;;;;;;21.16;30.98;96508.25;5090888;28;957;-80
2022/12/12 01:33:04;;;;;;;;;;;;;;;21.21;31.02;96521.75;5096300;28;1977;-80
2022/12/12 01:35:30;;;;;;;;;;;;;;;21.05;30.78;96519.28;5062726;28;963;-80
2022/12/12 01:37:56;;;;;;;;;;;;;;;20.89;31.27;96522.50;5096198;28;1027;-79
2022/12/12 01:40:23;;;;;;;;;;;;;;;21.36;30.84;96504.88;5096050;28;965;-81
2022/12/12 01:42:48;;;;;;;;;;;;;;;21.32;30.85;96513.53;5100236;27;964;-80
2022/12/12 01:45:33;;;;;;;;;;;;;;;21.32;30.62;96527.69;5137923;27;908;-81
2022/12/12 01:47:59;;;;;;;;;;;;;;;20.80;31.35;96532.56;5139767;27;888;-81
2022/12/12 01:50:24;;;;;;;;;;;;;;;20.95;31.04;96532.69;5139275;27;944;-81
2022/12/12 01:52:50;;;;;;;;;;;;;;;20.92;31.14;96527.97;5137814;27;886;-81
2022/12/12 01:55:16;;;;;;;;;;;;;;;20.81;31.09;96531.28;5139175;27;1963;-80
2022/12/12 01:57:43;;;;;;;;;;;;;;;21.15;30.93;96540.63;5137713;27;1110;-80
2022/12/12 02:00:09;;;;;;;;;;;;;;;21.06;31.12;96537.81;5136564;27;1466;-80
2022/12/12 02:02:35;;;;;;;;;;;;;;;21.24;30.87;96536.94;5056536;28;1015;-81
2022/12/12 02:05:01;;;;;;;;;;;;;;;21.35;30.46;96550.59;5062201;28;2030;-81
2022/12/12 02:07:27;;;;;;;;;;;;;;;20.91;31.18;96553.88;5059478;28;1053;-80
2022/12/12 02:09:52;;;;;;;;;;;;;;;20.78;31.29;96546.38;5075064;28;1032;-81
2022/12/12 02:12:17;;;;;;;;;;;;;;;20.60;31.58;96546.41;5076340;28;1067;-80
2022/12/12 02:14:47;;;;;;;;;;;;;;;20.98;31.17;96548.66;5075271;28;1906;-80
2022/12/12 02:17:27;;;;;;;;;;;;;;;21.21;30.49;96550.03;5058798;28;955;-81
2022/12/12 02:20:11;;;;;;;;;;;;;;;21.42;30.38;96553.13;5075090;28;1048;-81
2022/12/12 02:22:36;;;;;;;;;;;;;;;20.94;30.88;96555.78;5078830;28;905;-80
2022/12/12 02:25:20;;;;;;;;;;;;;;;20.88;30.77;96566.13;5079433;28;866;-81
2022/12/12 02:27:58;;;;;;;;;;;;;;;21.01;30.80;96572.41;5079304;28;1065;-80
2022/12/12 02:30:24;;;;;;;;;;;;;;;21.33;30.46;96563.19;5079919;28;1005;-80
2022/12/12 02:32:49;;;;;;;;;;;;;;;21.38;30.26;96569.47;5087122;28;1005;-81
2022/12/12 02:35:25;;;;;;;;;;;;;;;21.08;30.38;96564.34;5122218;28;1967;-80
2022/12/12 02:37:54;;;;;;;;;;;;;;;21.05;30.65;96558.88;5103983;28;1268;-81
2022/12/12 02:40:21;;;;;;;;;;;;;;;20.73;30.81;96555.50;5122211;28;1091;-81
2022/12/12 02:42:47;;;;;;;;;;;;;;;21.52;30.17;96558.25;5081834;28;1281;-80
2022/12/12 02:45:17;;;;;;;;;;;;;;;21.31;29.97;96568.56;5099482;28;997;-81
2022/12/12 02:47:52;;;;;;;;;;;;;;;21.48;29.91;96563.28;5099325;28;958;-81
2022/12/12 02:50:21;;;;;;;;;;;;;;;21.08;30.10;96553.03;5099557;28;1086;-81
2022/12/12 02:52:47;;;;;;;;;;;;;;;20.94;30.56;96555.78;5082201;28;1226;-80
2022/12/12 02:55:13;;;;;;;;;;;;;;;21.08;29.90;96546.59;5098781;28;1879;-81
2022/12/12 02:57:40;;;;;;;;;;;;;;;21.22;30.23;96548.75;5099746;28;915;-80
2022/12/12 03:00:07;;;;;;;;;;;;;;;21.32;29.98;96550.31;5098609;28;1846;-79
2022/12/12 03:02:35;;;;;;;;;;;;;;;21.29;29.97;96551.22;5098790;28;1683;-80
2022/12/12 03:08:11;;;;;;;;;;;;;;;20.90;30.20;96555.94;5098518;28;1028;-80
2022/12/12 03:10:42;;;;;;;;;;;;;;;20.79;30.07;96559.25;5098521;28;1206;-81
2022/12/12 03:13:31;;;;;;;;;;;;;;;21.25;29.87;96561.97;5087632;28;1910;-80
2022/12/12 03:15:56;;;;;;;;;;;;;;;21.24;29.68;96576.56;5045785;28;1538;-81
2022/12/12 03:18:32;;;;;;;;;;;;;;;21.44;29.33;96590.19;5061125;28;1094;-80
2022/12/12 03:21:02;;;;;;;;;;;;;;;21.03;29.66;96584.78;5045738;28;962;-80
2022/12/12 03:23:29;;;;;;;;;;;;;;;21.13;29.67;96593.25;5078101;28;884;-81
2022/12/12 03:25:59;;;;;;;;;;;;;;;21.04;30.12;96596.91;5075773;28;1082;-80
2022/12/12 03:28:27;;;;;;;;;;;;;;;21.40;29.39;96603.72;5074273;28;1004;-80
2022/12/12 03:30:54;;;;;;;;;;;;;;;21.39;29.16;96605.00;5058783;28;959;-80
2022/12/12 03:33:24;;;;;;;;;;;;;;;20.98;29.68;96593.13;5073598;28;1913;-81
2022/12/12 03:36:19;;;;;;;;;;;;;;;21.00;29.50;96591.41;5058857;28;1095;-81
2022/12/12 03:38:47;;;;;;;;;;;;;;;20.76;29.78;96604.66;5056904;28;959;-81
2022/12/12 03:41:14;;;;;;;;;;;;;;;21.38;29.30;96598.53;5042178;28;987;-80
2022/12/12 03:43:43;;;;;;;;;;;;;;;21.37;29.16;96601.88;5057199;28;921;-81
2022/12/12 03:46:12;;;;;;;;;;;;;;;21.18;28.99;96610.38;5058858;28;1003;-81
2022/12/12 03:48:39;;;;;;;;;;;;;;;20.81;29.64;96601.97;5056764;28;984;-80
2022/12/12 03:51:10;;;;;;;;;;;;;;;20.60;29.94;96597.28;5041581;28;907;-80
2022/12/12 03:53:37;;;;;;;;;;;;;;;21.12;29.67;96606.63;5056788;28;1906;-80
2022/12/12 03:56:05;;;;;;;;;;;;;;;21.15;29.15;96608.50;5041773;28;1131;-81
2022/12/12 03:58:35;;;;;;;;;;;;;;;21.28;28.91;96617.56;5040144;28;1035;-80
2022/12/12 04:01:03;;;;;;;;;;;;;;;21.18;28.87;96630.16;5041637;28;1781;-81
2022/12/12 04:03:31;;;;;;;;;;;;;;;21.02;29.38;96644.66;5040111;28;955;-81
2022/12/12 04:06:27;;;;;;;;;;;;;;;20.86;29.28;96654.25;5040792;28;1133;-80
2022/12/12 04:14:52;;;;;;;;;;;;;;;21.20;28.79;96672.91;5069954;28;1969;-81
2022/12/12 04:17:17;;;;;;;;;;;;;;;20.91;29.57;96664.94;5020852;28;1709;-81
2022/12/12 04:25:25;;;;;;;;;;;;;;;21.44;28.76;96649.63;4949127;28;976;-81
2022/12/12 04:27:50;;;;;;;;;;;;;;;21.31;28.78;96633.63;4977392;28;1028;-81
2022/12/12 04:30:16;;;;;;;;;;;;;;;20.99;29.20;96645.63;4997819;28;890;-80
2022/12/12 04:33:00;;;;;;;;;;;;;;;21.02;29.01;96633.34;4998156;28;1020;-80
2022/12/12 04:35:28;;;;;;;;;;;;;;;20.89;29.31;96652.53;4997722;28;987;-80
2022/12/12 04:37:55;;;;;;;;;;;;;;;21.40;28.61;96651.81;4997726;28;972;-80
2022/12/12 04:40:30;;;;;;;;;;;;;;;21.27;28.52;96655.59;4980773;28;1587;-81
2022/12/12 04:42:57;;;;;;;;;;;;;;;21.10;28.62;96648.75;4961612;28;1598;-81
2022/12/12 04:45:23;;;;;;;;;;;;;;;20.70;29.32;96638.41;4991736;28;971;-81
2022/12/12 04:47:49;;;;;;;;;;;;;;;20.82;29.21;96625.34;4981429;28;1036;-80
2022/12/12 04:50:15;;;;;;;;;;;;;;;20.93;29.14;96636.19;4993234;28;911;-81
2022/12/12 04:52:40;;;;;;;;;;;;;;;21.21;28.73;96632.06;5015519;28;1763;-81
2022/12/12 04:55:29;;;;;;;;;;;;;;;21.41;28.58;96642.09;5093455;28;2065;-80
2022/12/12 04:57:54;;;;;;;;;;;;;;;21.14;28.63;96674.00;5045119;28;1557;-80
2022/12/12 05:00:20;;;;;;;;;;;;;;;21.07;28.91;96697.75;5023309;28;975;-81
2022/12/12 05:02:46;;;;;;;;;;;;;;;20.91;29.12;96698.09;5015603;28;1428;-80
2022/12/12 05:05:13;;;;;;;;;;;;;;;20.91;29.34;96703.75;5016300;28;985;-80
2022/12/12 05:07:40;;;;;;;;;;;;;;;21.03;28.95;96726.19;5000659;28;1237;-81
2022/12/12 05:10:06;;;;;;;;;;;;;;;21.35;28.48;96743.00;5000049;28;1092;-81
2022/12/12 05:12:41;;;;;;;;;;;;;;;21.18;28.75;96748.97;4999898;28;1687;-81
2022/12/12 05:15:07;;;;;;;;;;;;;;;20.91;29.37;96757.47;4982738;28;1984;-81
2022/12/12 05:17:34;;;;;;;;;;;;;;;20.77;29.50;96753.97;5016997;28;928;-81
2022/12/12 05:19:59;;;;;;;;;;;;;;;20.73;29.76;96747.72;5016336;28;959;-80
2022/12/12 05:22:25;;;;;;;;;;;;;;;21.10;29.27;96764.69;5015968;28;1597;-81
2022/12/12 05:24:50;;;;;;;;;;;;;;;21.20;28.96;96763.44;5015156;28;2816;-81
2022/12/12 05:27:15;;;;;;;;;;;;;;;21.10;28.99;96764.69;5017037;28;906;-81
2022/12/12 05:29:41;;;;;;;;;;;;;;;20.93;29.47;96774.72;5016180;28;930;-81
2022/12/12 05:32:06;;;;;;;;;;;;;;;20.99;29.20;96765.16;5017370;28;1165;-81
2022/12/12 05:34:32;;;;;;;;;;;;;;;20.87;29.66;96754.00;5042632;28;1894;-80
2022/12/12 05:36:57;;;;;;;;;;;;;;;21.17;28.98;96744.56;5096924;28;967;-80
2022/12/12 05:39:23;;;;;;;;;;;;;;;21.24;29.06;96747.09;5082740;28;954;-81
2022/12/12 05:41:50;;;;;;;;;;;;;;;21.37;28.60;96751.81;5118137;28;908;-81
2022/12/12 05:44:15;;;;;;;;;;;;;;;21.11;29.10;96740.81;5118772;28;903;-81
2022/12/12 05:46:41;;;;;;;;;;;;;;;21.00;29.02;96761.09;5118733;28;1423;-81
2022/12/12 05:49:06;;;;;;;;;;;;;;;21.00;29.38;96763.13;5118605;28;938;-81
2022/12/12 05:51:32;;;;;;;;;;;;;;;21.19;28.86;96767.53;5119056;28;853;-80
2022/12/12 05:53:59;;;;;;;;;;;;;;;21.35;28.57;96776.97;5118677;28;1965;-81
2022/12/12 05:56:24;;;;;;;;;;;;;;;21.16;28.51;96768.47;5119331;28;705;-81
2022/12/12 05:58:50;;;;;;;;;;;;;;;21.11;28.66;96771.91;5098319;28;1586;-80
2022/12/12 06:01:15;;;;;;;;;;;;;;;20.92;29.04;96776.00;5119199;28;797;-81
2022/12/12 06:03:40;;;;;;;;;;;;;;;20.71;29.31;96775.66;5117904;28;885;-81
2022/12/12 06:06:07;;;;;;;;;;;;;;;21.04;28.76;96777.91;5119819;28;1055;-81
2022/12/12 06:08:32;;;;;;;;;;;;;;;21.10;28.98;96780.88;5117775;28;918;-81
2022/12/12 06:10:58;;;;;;;;;;;;;;;21.06;28.49;96779.00;5119527;28;994;-81
2022/12/12 06:13:23;;;;;;;;;;;;;;;20.72;28.96;96780.03;5117572;28;1905;-80
2022/12/12 06:15:49;;;;;;;;;;;;;;;20.86;28.99;96783.53;5098900;28;1606;-81
2022/12/12 06:18:15;;;;;;;;;;;;;;;20.85;28.75;96781.97;5118131;28;873;-81
2022/12/12 06:20:40;;;;;;;;;;;;;;;21.12;28.38;96787.63;5117174;28;1146;-80
2022/12/12 06:23:06;;;;;;;;;;;;;;;21.32;28.08;96787.19;5118075;28;902;-81
2022/12/12 06:25:31;;;;;;;;;;;;;;;21.33;28.24;96794.41;5119181;28;937;-80
2022/12/12 06:27:57;;;;;;;;;;;;;;;20.93;28.48;96797.34;5115616;28;1471;-81
2022/12/12 06:30:22;;;;;;;;;;;;;;;21.01;28.67;96801.47;5117293;28;1673;-80
2022/12/12 06:32:47;;;;;;;;;;;;;;;21.03;28.23;96805.38;5119024;28;976;-81
2022/12/12 06:35:13;;;;;;;;;;;;;;;21.10;28.28;96809.97;5118048;28;1906;-80
2022/12/12 06:37:39;;;;;;;;;;;;;;;21.13;28.19;96831.63;5118565;28;861;-81
2022/12/12 06:40:04;;;;;;;;;;;;;;;21.28;28.03;96823.31;5116793;28;1113;-80
2022/12/12 06:42:30;;;;;;;;;;;;;;;21.32;27.89;96821.94;5117508;28;869;-81
2022/12/12 06:44:55;;;;;;;;;;;;;;;21.03;28.11;96833.66;5116152;28;1693;-80
2022/12/12 06:47:21;;;;;;;;;;;;;;;21.01;28.28;96830.53;5119152;28;1033;-80
2022/12/12 06:49:46;;;;;;;;;;;;;;;21.01;28.49;96835.38;5117805;28;962;-81
2022/12/12 06:52:12;;;;;;;;;;;;;;;20.83;28.86;96832.53;5115367;28;1478;-81
2022/12/12 06:54:38;;;;;;;;;;;;;;;21.25;27.90;96832.75;5115715;28;1976;-81
2022/12/12 06:57:03;;;;;;;;;;;;;;;21.27;27.83;96853.66;5118338;28;897;-81
2022/12/12 06:59:29;;;;;;;;;;;;;;;21.19;27.73;96852.41;5117990;28;1002;-80
2022/12/12 07:01:55;;;;;;;;;;;;;;;21.13;27.94;96850.63;5119091;28;908;-81
2022/12/12 07:04:20;;;;;;;;;;;;;;;21.00;28.42;96856.44;5116380;28;929;-80
2022/12/12 07:06:45;;;;;;;;;;;;;;;20.85;28.60;96852.66;5117945;28;1526;-80
2022/12/12 07:09:11;;;;;;;;;;;;;;;21.06;28.23;96854.56;5119241;28;1415;-81
2022/12/12 07:11:37;;;;;;;;;;;;;;;21.07;28.36;96867.44;5121669;28;1414;-80
2022/12/12 07:14:04;;;;;;;;;;;;;;;20.95;28.30;96859.91;5120377;28;1901;-81
2022/12/12 07:16:30;;;;;;;;;;;;;;;21.07;27.92;96867.44;5122637;28;908;-81
2022/12/12 07:18:55;;;;;;;;;;;;;;;20.97;27.94;96869.47;5121060;28;963;-81
2022/12/12 07:21:21;;;;;;;;;;;;;;;21.29;27.80;96876.59;5122617;28;878;-81
2022/12/12 07:23:46;;;;;;;;;;;;;;;21.29;27.42;96873.75;5120309;28;1557;-81
2022/12/12 07:26:12;;;;;;;;;;;;;;;21.16;27.76;96875.16;5122673;28;1129;-81
2022/12/12 07:28:38;;;;;;;;;;;;;;;20.88;28.32;96888.44;5120548;28;878;-81
2022/12/12 07:31:06;;;;;;;;;;;;;;;20.94;28.08;96880.94;5122689;28;878;-81
2022/12/12 07:33:32;;;;;;;;;;;;;;;20.98;28.00;96875.91;5084241;28;1910;-82
2022/12/12 07:35:58;;;;;;;;;;;;;;;21.21;27.90;96866.84;5122095;28;1066;-81
2022/12/12 07:38:24;;;;;;;;;;;;;;;21.10;28.03;96869.34;5083777;28;1596;-81
2022/12/12 07:40:49;;;;;;;;;;;;;;;21.23;27.75;96863.53;5121790;28;914;-81
2022/12/12 07:43:14;;;;;;;;;;;;;;;21.03;27.77;96861.16;5120631;28;995;-81
2022/12/12 07:45:42;;;;;;;;;;;;;;;20.90;28.09;96869.78;5121619;28;965;-80
2022/12/12 07:48:08;;;;;;;;;;;;;;;20.86;28.38;96862.69;5120632;28;901;-81
2022/12/12 07:50:33;;;;;;;;;;;;;;;21.20;27.65;96870.94;5121137;28;775;-80
2022/12/12 07:52:59;;;;;;;;;;;;;;;21.24;27.84;96860.25;5119582;28;1356;-81
2022/12/12 07:55:24;;;;;;;;;;;;;;;21.29;27.69;96868.09;5120880;28;1981;-81
2022/12/12 07:57:52;;;;;;;;;;;;;;;20.88;27.99;96889.25;5120640;28;852;-80
2022/12/12 08:00:17;;;;;;;;;;;;;;;20.95;27.87;96888.16;5120979;28;868;-81
2022/12/12 08:02:43;;;;;;;;;;;;;;;20.91;28.16;96904.50;5121148;28;928;-80
2022/12/12 08:05:08;;;;;;;;;;;;;;;20.84;28.04;96899.94;5120674;28;836;-81
2022/12/12 08:07:34;;;;;;;;;;;;;;;21.21;27.65;96889.47;5120873;28;1507;-80
2022/12/12 08:09:59;;;;;;;;;;;;;;;21.36;27.50;96895.34;5119208;28;1673;-81
2022/12/12 08:12:27;;;;;;;;;;;;;;;21.35;27.15;96890.94;5120771;28;873;-81
2022/12/12 08:14:52;;;;;;;;;;;;;;;21.09;27.60;96887.59;5120349;27;1910;-80
2022/12/12 08:17:18;;;;;;;;;;;;;;;20.79;28.17;96892.84;5121457;28;859;-81
2022/12/12 08:19:43;;;;;;;;;;;;;;;20.80;28.05;96905.72;5120012;28;842;-80
2022/12/12 08:22:09;;;;;;;;;;;;;;;20.90;27.98;96908.56;5120721;28;937;-80
2022/12/12 08:24:34;;;;;;;;;;;;;;;21.11;27.66;96906.91;5119543;28;1590;-80
2022/12/12 08:27:00;;;;;;;;;;;;;;;21.33;27.49;96907.59;5120830;28;1180;-80
2022/12/12 08:29:25;;;;;;;;;;;;;;;21.16;27.35;96901.41;5120321;28;893;-81
2022/12/12 08:31:51;;;;;;;;;;;;;;;21.11;27.60;96907.69;5119811;28;856;-81
2022/12/12 08:34:16;;;;;;;;;;;;;;;20.97;28.01;96908.28;5120139;28;1974;-81
2022/12/12 08:36:42;;;;;;;;;;;;;;;21.07;27.74;96909.88;5120975;28;950;-81
2022/12/12 08:39:08;;;;;;;;;;;;;;;21.20;27.77;96904.09;5119654;28;1503;-80
2022/12/12 08:41:34;;;;;;;;;;;;;;;21.26;27.33;96891.69;5077442;28;915;-81
2022/12/12 08:44:00;;;;;;;;;;;;;;;21.10;27.55;96894.03;5076816;28;952;-80
2022/12/12 08:46:25;;;;;;;;;;;;;;;21.00;27.65;96907.34;5077359;28;931;-81
2022/12/12 08:48:51;;;;;;;;;;;;;;;20.86;28.03;96907.94;5026235;28;1015;-81
2022/12/12 08:51:16;;;;;;;;;;;;;;;20.89;28.08;96915.50;5077964;28;922;-81
2022/12/12 08:53:42;;;;;;;;;;;;;;;21.08;27.63;96908.59;5042706;28;1918;-80
2022/12/12 08:56:08;;;;;;;;;;;;;;;21.10;27.64;96923.09;5057682;28;917;-80
2022/12/12 08:58:33;;;;;;;;;;;;;;;21.12;27.84;96926.22;5056058;28;933;-81
2022/12/12 09:00:59;;;;;;;;;;;;;;;21.02;27.77;96927.47;5058122;28;935;-80
2022/12/12 09:03:24;;;;;;;;;;;;;;;20.86;28.20;96924.91;5056330;28;898;-81
2022/12/12 09:05:49;;;;;;;;;;;;;;;20.68;28.25;96923.59;5057435;28;948;-80
2022/12/12 09:08:15;;;;;;;;;;;;;;;20.67;28.66;96929.69;5070085;28;1611;-80
2022/12/12 09:10:41;;;;;;;;;;;;;;;21.07;28.00;96940.97;5075816;28;1454;-81
2022/12/12 09:13:06;;;;;;;;;;;;;;;21.28;27.54;96940.09;5101254;28;859;-81
2022/12/12 09:15:32;;;;;;;;;;;;;;;20.98;27.80;96940.94;5119403;28;1918;-80
2022/12/12 09:17:58;;;;;;;;;;;;;;;20.82;28.13;96936.34;5118077;28;958;-80
2022/12/12 09:20:24;;;;;;;;;;;;;;;20.78;28.22;96933.69;5119672;28;1329;-81
2022/12/12 09:22:50;;;;;;;;;;;;;;;21.04;28.10;96933.44;5118578;28;1507;-80
2022/12/12 09:25:15;;;;;;;;;;;;;;;21.21;27.91;96926.25;5118533;28;941;-81
2022/12/12 09:27:41;;;;;;;;;;;;;;;21.06;28.10;96928.88;5119985;28;931;-81
2022/12/12 09:30:07;;;;;;;;;;;;;;;21.10;27.82;96940.06;5118994;28;913;-81
2022/12/12 09:32:32;;;;;;;;;;;;;;;20.71;28.59;96925.47;5119761;28;821;-81
2022/12/12 09:34:57;;;;;;;;;;;;;;;20.70;28.44;96923.09;5117662;28;1913;-81
2022/12/12 09:37:23;;;;;;;;;;;;;;;20.84;28.39;96921.75;5118322;28;1386;-81
2022/12/12 09:39:49;;;;;;;;;;;;;;;21.44;27.37;96904.31;5119451;28;954;-80
2022/12/12 09:42:25;;;;;;;;;;;;;;;21.31;27.74;96919.38;5119459;28;951;-81
2022/12/12 09:44:51;;;;;;;;;;;;;;;21.25;27.67;96921.25;5118838;28;949;-81
2022/12/12 09:47:19;;;;;;;;;;;;;;;20.72;28.70;96926.25;5119241;28;1116;-81
2022/12/12 09:49:49;;;;;;;;;;;;;;;20.90;28.42;96939.69;5117306;28;921;-81
2022/12/12 09:52:15;;;;;;;;;;;;;;;20.67;28.73;96940.97;5116660;28;1499;-81
2022/12/12 09:54:40;;;;;;;;;;;;;;;20.74;28.70;96944.34;5117869;28;1914;-81
2022/12/12 09:57:15;;;;;;;;;;;;;;;20.97;28.50;96959.19;5119396;28;916;-81
2022/12/12 10:00:01;;;;;;;;;;;;;;;21.19;27.93;96961.91;5117898;28;911;-81
2022/12/12 10:02:54;;;;;;;;;;;;;;;21.04;28.23;96964.56;5119880;28;882;-83
2022/12/12 10:05:37;;;;;;;;;;;;;;;20.90;28.59;96960.25;5035676;28;1023;-81
2022/12/12 10:08:09;;;;;;;;;;;;;;;20.96;28.76;96969.69;5034360;28;1611;-80
2022/12/12 10:10:38;;;;;;;;;;;;;;;21.11;28.27;96964.25;5002786;28;1179;-80
2022/12/12 10:13:04;;;;;;;;;;;;;;;21.29;27.94;96969.94;5018966;28;884;-81
2022/12/12 10:15:29;;;;;;;;;;;;;;;20.86;28.85;96956.78;5018715;28;2010;-81
2022/12/12 10:17:55;;;;;;;;;;;;;;;20.76;28.69;96950.28;5035523;28;991;-80
2022/12/12 10:20:21;;;;;;;;;;;;;;;20.88;28.60;96959.13;5019543;28;947;-81
2022/12/12 10:22:48;;;;;;;;;;;;;;;21.20;28.27;96969.16;5018649;28;1875;-81
2022/12/12 10:25:14;;;;;;;;;;;;;;;21.00;28.80;96961.88;5034568;28;1652;-81
2022/12/12 10:27:39;;;;;;;;;;;;;;;21.29;28.23;96957.84;5035320;28;972;-80
2022/12/12 10:30:14;;;;;;;;;;;;;;;20.93;28.69;96958.53;5018715;28;887;-81
2022/12/12 10:32:40;;;;;;;;;;;;;;;20.91;28.69;96958.22;4976525;28;968;-81
2022/12/12 10:35:05;;;;;;;;;;;;;;;20.93;28.72;96958.53;4976784;28;1993;-81
2022/12/12 10:37:37;;;;;;;;;;;;;;;21.33;28.23;96950.03;4977148;28;947;-79
2022/12/12 10:40:12;;;;;;;;;;;;;;;21.31;28.13;96955.38;4975806;28;1497;-81
2022/12/12 10:42:42;;;;;;;;;;;;;;;21.28;28.34;96962.72;5027773;28;1567;-81
2022/12/12 10:45:11;;;;;;;;;;;;;;;20.75;28.85;96960.03;5042523;28;1158;-81
2022/12/12 10:47:36;;;;;;;;;;;;;;;20.77;29.02;96957.53;5042372;28;1024;-79
2022/12/12 10:50:21;;;;;;;;;;;;;;;20.84;28.76;96967.78;5042620;28;1023;-81
2022/12/12 10:52:47;;;;;;;;;;;;;;;21.20;28.53;96969.16;5042161;28;914;-81
2022/12/12 10:55:18;;;;;;;;;;;;;;;21.18;28.33;96969.59;5042359;28;1909;-81
2022/12/12 10:57:44;;;;;;;;;;;;;;;21.14;28.53;96960.50;5042136;28;1700;-80
2022/12/12 11:00:20;;;;;;;;;;;;;;;21.03;28.86;96962.97;5058538;28;988;-81
2022/12/12 11:02:46;;;;;;;;;;;;;;;20.98;28.69;96966.41;5048117;28;1092;-80
2022/12/12 11:05:19;;;;;;;;;;;;;;;20.81;29.01;96963.03;5100659;28;853;-81
2022/12/12 11:07:46;;;;;;;;;;;;;;;21.09;28.59;96963.94;5119901;28;1567;-81
2022/12/12 11:10:26;;;;;;;;;;;;;;;21.13;28.64;96953.25;5119715;28;1026;-81
2022/12/12 11:13:02;;;;;;;;;;;;;;;21.16;28.77;96955.16;5121760;28;920;-79
2022/12/12 11:15:36;;;;;;;;;;;;;;;20.87;28.74;96960.41;5100490;28;1917;-81
2022/12/12 11:18:01;;;;;;;;;;;;;;;21.01;28.71;96943.63;5100429;28;967;-81
2022/12/12 11:20:27;;;;;;;;;;;;;;;20.62;29.29;96945.19;5082766;28;995;-81
2022/12/12 11:22:53;;;;;;;;;;;;;;;20.97;28.97;96936.56;5099871;28;873;-81
2022/12/12 11:25:28;;;;;;;;;;;;;;;21.12;28.55;96931.09;5099516;28;1003;-81
2022/12/12 11:27:55;;;;;;;;;;;;;;;21.27;28.38;96924.38;5100592;28;1724;-81
2022/12/12 11:30:23;;;;;;;;;;;;;;;21.08;28.43;96932.03;5103270;28;919;-81
2022/12/12 11:32:49;;;;;;;;;;;;;;;20.81;28.93;96935.56;5121468;28;924;-80
2022/12/12 11:35:34;;;;;;;;;;;;;;;20.64;29.25;96939.88;5120245;28;1918;-81
2022/12/12 11:38:20;;;;;;;;;;;;;;;20.84;29.34;96950.03;5103248;28;962;-81
2022/12/12 11:40:46;;;;;;;;;;;;;;;21.19;28.43;96953.41;5120319;28;1173;-81
2022/12/12 11:43:23;;;;;;;;;;;;;;;21.12;28.52;96960.16;5119025;28;1500;-81
2022/12/12 11:46:06;;;;;;;;;;;;;;;20.91;28.62;96955.38;5121854;28;806;-81
2022/12/12 11:48:55;;;;;;;;;;;;;;;20.60;29.50;96970.31;5120086;27;907;-80
2022/12/12 11:51:34;;;;;;;;;;;;;;;20.51;29.42;96973.09;5038743;28;1116;-81
2022/12/12 11:54:00;;;;;;;;;;;;;;;20.91;28.92;96989.31;5020859;28;1890;-81
2022/12/12 11:56:25;;;;;;;;;;;;;;;21.06;28.71;96979.00;5021937;28;925;-81
2022/12/12 11:58:51;;;;;;;;;;;;;;;21.26;28.22;96979.38;5019570;28;1479;-81
2022/12/12 12:01:18;;;;;;;;;;;;;;;20.92;28.78;96985.22;5038494;28;977;-81
2022/12/12 12:03:59;;;;;;;;;;;;;;;20.56;29.60;96980.97;5020844;28;1030;-81
2022/12/12 12:06:43;;;;;;;;;;;;;;;20.60;29.40;96978.81;5038552;28;1057;-81
2022/12/12 12:09:44;;;;;;;;;;;;;;;21.19;28.73;96988.19;5037367;28;1069;-81
2022/12/12 12:12:14;;;;;;;;;;;;;;;21.12;28.83;96994.13;4979115;28;1351;-80
2022/12/12 12:14:58;;;;;;;;;;;;;;;21.11;28.66;96986.09;4978571;28;2233;-81
2022/12/12 12:17:32;;;;;;;;;;;;;;;20.93;29.00;96983.97;4979499;28;1085;-81
2022/12/12 12:19:58;;;;;;;;;;;;;;;20.61;29.35;96983.19;4962564;28;1026;-81
2022/12/12 12:22:42;;;;;;;;;;;;;;;20.99;29.08;96991.41;4979369;28;922;-80
2022/12/12 12:25:28;;;;;;;;;;;;;;;21.24;28.33;96989.59;4978347;28;920;-81
2022/12/12 12:28:08;;;;;;;;;;;;;;;20.90;29.04;96994.19;4996374;28;1556;-81
2022/12/12 12:30:39;;;;;;;;;;;;;;;20.89;28.92;97005.97;5037642;28;936;-81
2022/12/12 12:33:17;;;;;;;;;;;;;;;20.78;29.00;96995.88;5037108;28;1004;-81
2022/12/12 12:35:54;;;;;;;;;;;;;;;21.07;29.11;97008.88;5021298;28;940;-81
2022/12/12 12:38:26;;;;;;;;;;;;;;;21.10;28.83;97012.81;5036687;28;1099;-80
2022/12/12 12:41:00;;;;;;;;;;;;;;;21.06;28.70;97004.47;5021379;28;969;-81
2022/12/12 12:43:28;;;;;;;;;;;;;;;20.83;29.15;97010.63;5035499;28;1491;-81
2022/12/12 12:45:56;;;;;;;;;;;;;;;20.81;29.30;97011.09;5045542;28;965;-81
2022/12/12 12:48:28;;;;;;;;;;;;;;;20.73;29.16;97007.78;5056299;28;986;-81
2022/12/12 12:50:56;;;;;;;;;;;;;;;21.36;28.42;97004.91;5041145;28;1034;-81
2022/12/12 12:53:39;;;;;;;;;;;;;;;21.21;28.57;97002.63;5039825;28;1909;-81
2022/12/12 12:56:24;;;;;;;;;;;;;;;21.12;28.85;97011.09;5057846;28;869;-80
2022/12/12 12:58:49;;;;;;;;;;;;;;;20.93;29.00;97006.59;5055758;28;967;-81
2022/12/12 13:01:17;;;;;;;;;;;;;;;20.70;29.45;97002.25;5041391;28;1007;-80
2022/12/12 13:03:45;;;;;;;;;;;;;;;20.65;29.41;96998.00;5056027;28;948;-81
2022/12/12 13:06:12;;;;;;;;;;;;;;;21.12;29.00;96994.13;5117784;28;988;-81
2022/12/12 13:08:45;;;;;;;;;;;;;;;21.11;28.85;97000.25;5100748;28;880;-81
2022/12/12 13:11:13;;;;;;;;;;;;;;;21.08;29.05;96993.47;5118526;28;1351;-81
2022/12/12 13:13:39;;;;;;;;;;;;;;;20.93;28.96;96998.13;5117162;28;1905;-80
2022/12/12 13:16:07;;;;;;;;;;;;;;;20.59;29.47;97002.66;5119484;28;876;-81
2022/12/12 13:18:33;;;;;;;;;;;;;;;20.75;29.40;97005.25;5100748;28;1729;-80
2022/12/12 13:21:34;;;;;;;;;;;;;;;21.12;28.76;97005.44;5119253;28;1154;-80
2022/12/12 13:24:08;;;;;;;;;;;;;;;21.04;28.99;97009.81;5035949;28;945;-81